Terminal Aerodrome Forecast
Issued by NWS

Home | Current Version | Previous Version | Graphics & Text | Print | Product List | Glossary On
Versions: 1 2 3 4 5 6 7 8 9 10 11 12 13 14 15 16 17 18 19 20 21 22 23 24
000
FTUS43 KLOT 231120
TAFMDW
TAF
KMDW 231120Z 2312/2418 04007KT P6SM BKN250
     FM231600 04012KT P6SM BKN120 OVC200
     FM240200 06006KT P6SM SCT020 OVC060
     FM240400 06006KT P6SM VCSH SCT008 BKN015
     FM241400 03010KT P6SM BKN018=

USA.gov is the U.S. government's official web portal to all federal, state and local government web resources and services.